sensor_id;sensor_type;location;lat;lon;timestamp;P1;durP1;ratioP1;P2;durP2;ratioP2
78840;SDS011;68191;47.190;27.558;2023-02-28T00:00:39;1.70;;;1.20;;
78840;SDS011;68191;47.190;27.558;2023-02-28T00:03:09;2.20;;;1.10;;
78840;SDS011;68191;47.190;27.558;2023-02-28T00:05:40;1.70;;;1.10;;
78840;SDS011;68191;47.190;27.558;2023-02-28T00:08:10;1.50;;;1.20;;
78840;SDS011;68191;47.190;27.558;2023-02-28T00:10:41;1.40;;;1.10;;
78840;SDS011;68191;47.190;27.558;2023-02-28T00:13:11;1.60;;;1.00;;
78840;SDS011;68191;47.190;27.558;2023-02-28T00:15:41;2.20;;;1.30;;
78840;SDS011;68191;47.190;27.558;2023-02-28T00:18:12;1.80;;;1.20;;
78840;SDS011;68191;47.190;27.558;2023-02-28T00:20:42;1.80;;;1.30;;
78840;SDS011;68191;47.190;27.558;2023-02-28T00:23:13;1.70;;;1.20;;
78840;SDS011;68191;47.190;27.558;2023-02-28T00:25:43;1.90;;;1.20;;
78840;SDS011;68191;47.190;27.558;2023-02-28T00:28:14;2.10;;;1.30;;
78840;SDS011;68191;47.190;27.558;2023-02-28T00:30:45;2.00;;;1.20;;
78840;SDS011;68191;47.190;27.558;2023-02-28T00:33:15;1.80;;;1.30;;
78840;SDS011;68191;47.190;27.558;2023-02-28T00:35:46;1.90;;;1.30;;
78840;SDS011;68191;47.190;27.558;2023-02-28T00:38:16;1.60;;;1.10;;
78840;SDS011;68191;47.190;27.558;2023-02-28T00:40:46;1.70;;;1.20;;
78840;SDS011;68191;47.190;27.558;2023-02-28T00:43:17;1.40;;;1.20;;
78840;SDS011;68191;47.190;27.558;2023-02-28T00:45:47;1.80;;;1.10;;
78840;SDS011;68191;47.190;27.558;2023-02-28T00:48:17;1.80;;;1.50;;
78840;SDS011;68191;47.190;27.558;2023-02-28T00:50:49;1.70;;;1.30;;
78840;SDS011;68191;47.190;27.558;2023-02-28T00:53:19;1.90;;;1.30;;
78840;SDS011;68191;47.190;27.558;2023-02-28T00:55:50;1.50;;;1.00;;
78840;SDS011;68191;47.190;27.558;2023-02-28T00:58:21;1.80;;;1.30;;
78840;SDS011;68191;47.190;27.558;2023-02-28T01:00:52;1.80;;;1.10;;
78840;SDS011;68191;47.190;27.558;2023-02-28T01:03:22;1.90;;;1.10;;
78840;SDS011;68191;47.190;27.558;2023-02-28T01:05:53;1.60;;;1.10;;
78840;SDS011;68191;47.190;27.558;2023-02-28T01:08:23;1.90;;;1.00;;
78840;SDS011;68191;47.190;27.558;2023-02-28T01:10:54;1.50;;;0.90;;
78840;SDS011;68191;47.190;27.558;2023-02-28T01:13:24;1.70;;;1.10;;
78840;SDS011;68191;47.190;27.558;2023-02-28T01:15:55;1.40;;;0.90;;
78840;SDS011;68191;47.190;27.558;2023-02-28T01:18:25;2.30;;;1.40;;
78840;SDS011;68191;47.190;27.558;2023-02-28T01:20:56;1.30;;;0.90;;
78840;SDS011;68191;47.190;27.558;2023-02-28T01:23:26;1.70;;;1.30;;
78840;SDS011;68191;47.190;27.558;2023-02-28T01:25:56;1.70;;;1.30;;
78840;SDS011;68191;47.190;27.558;2023-02-28T01:28:31;3.30;;;1.40;;
78840;SDS011;68191;47.190;27.558;2023-02-28T01:31:02;2.00;;;1.40;;
78840;SDS011;68191;47.190;27.558;2023-02-28T01:33:32;2.40;;;1.60;;
78840;SDS011;68191;47.190;27.558;2023-02-28T01:36:04;1.80;;;1.40;;
78840;SDS011;68191;47.190;27.558;2023-02-28T01:38:38;2.40;;;1.50;;
78840;SDS011;68191;47.190;27.558;2023-02-28T01:41:09;2.80;;;1.60;;
78840;SDS011;68191;47.190;27.558;2023-02-28T01:43:58;2.60;;;1.20;;
78840;SDS011;68191;47.190;27.558;2023-02-28T01:46:31;1.80;;;1.50;;
78840;SDS011;68191;47.190;27.558;2023-02-28T01:49:07;3.30;;;1.60;;
78840;SDS011;68191;47.190;27.558;2023-02-28T01:51:41;2.10;;;1.40;;
78840;SDS011;68191;47.190;27.558;2023-02-28T01:54:18;2.30;;;1.40;;
78840;SDS011;68191;47.190;27.558;2023-02-28T01:56:53;2.60;;;2.10;;
78840;SDS011;68191;47.190;27.558;2023-02-28T01:59:28;2.80;;;1.70;;
78840;SDS011;68191;47.190;27.558;2023-02-28T02:02:02;2.50;;;1.40;;
78840;SDS011;68191;47.190;27.558;2023-02-28T02:04:34;2.30;;;1.50;;
78840;SDS011;68191;47.190;27.558;2023-02-28T02:07:12;1.90;;;1.50;;
78840;SDS011;68191;47.190;27.558;2023-02-28T02:09:43;2.50;;;1.40;;
78840;SDS011;68191;47.190;27.558;2023-02-28T02:12:16;2.20;;;1.30;;
78840;SDS011;68191;47.190;27.558;2023-02-28T02:15:02;2.70;;;1.60;;
78840;SDS011;68191;47.190;27.558;2023-02-28T02:17:42;2.00;;;1.60;;
78840;SDS011;68191;47.190;27.558;2023-02-28T02:20:21;2.50;;;1.60;;
78840;SDS011;68191;47.190;27.558;2023-02-28T02:23:26;3.00;;;1.30;;
78840;SDS011;68191;47.190;27.558;2023-02-28T02:26:18;3.30;;;1.80;;
78840;SDS011;68191;47.190;27.558;2023-02-28T02:29:21;2.20;;;1.70;;
78840;SDS011;68191;47.190;27.558;2023-02-28T02:32:16;2.10;;;1.60;;
78840;SDS011;68191;47.190;27.558;2023-02-28T02:35:04;2.20;;;1.40;;
78840;SDS011;68191;47.190;27.558;2023-02-28T02:37:45;2.20;;;1.70;;
78840;SDS011;68191;47.190;27.558;2023-02-28T02:40:21;2.10;;;1.60;;
78840;SDS011;68191;47.190;27.558;2023-02-28T02:42:58;2.40;;;1.60;;
78840;SDS011;68191;47.190;27.558;2023-02-28T02:45:36;2.10;;;1.60;;
78840;SDS011;68191;47.190;27.558;2023-02-28T02:48:11;2.40;;;1.80;;
78840;SDS011;68191;47.190;27.558;2023-02-28T02:50:45;2.20;;;1.90;;
78840;SDS011;68191;47.190;27.558;2023-02-28T02:53:18;2.00;;;1.50;;
78840;SDS011;68191;47.190;27.558;2023-02-28T02:55:53;2.20;;;1.90;;
78840;SDS011;68191;47.190;27.558;2023-02-28T02:58:26;1.90;;;1.50;;
78840;SDS011;68191;47.190;27.558;2023-02-28T03:01:01;2.10;;;1.50;;
78840;SDS011;68191;47.190;27.558;2023-02-28T03:03:32;3.00;;;1.80;;
78840;SDS011;68191;47.190;27.558;2023-02-28T03:06:04;2.60;;;1.70;;
78840;SDS011;68191;47.190;27.558;2023-02-28T03:08:35;2.40;;;1.90;;
78840;SDS011;68191;47.190;27.558;2023-02-28T03:11:07;2.20;;;1.50;;
78840;SDS011;68191;47.190;27.558;2023-02-28T03:13:57;3.80;;;1.80;;
78840;SDS011;68191;47.190;27.558;2023-02-28T03:19:57;2.30;;;1.80;;
78840;SDS011;68191;47.190;27.558;2023-02-28T03:22:42;2.60;;;1.60;;
78840;SDS011;68191;47.190;27.558;2023-02-28T03:25:22;2.70;;;1.70;;
78840;SDS011;68191;47.190;27.558;2023-02-28T03:30:41;2.60;;;1.60;;
78840;SDS011;68191;47.190;27.558;2023-02-28T03:33:21;1.80;;;1.50;;
78840;SDS011;68191;47.190;27.558;2023-02-28T03:35:56;2.60;;;1.80;;
78840;SDS011;68191;47.190;27.558;2023-02-28T03:38:31;2.80;;;1.80;;
78840;SDS011;68191;47.190;27.558;2023-02-28T03:41:09;2.70;;;1.90;;
78840;SDS011;68191;47.190;27.558;2023-02-28T03:43:43;2.40;;;1.90;;
78840;SDS011;68191;47.190;27.558;2023-02-28T03:46:22;2.70;;;1.80;;
78840;SDS011;68191;47.190;27.558;2023-02-28T03:48:58;2.20;;;1.80;;
78840;SDS011;68191;47.190;27.558;2023-02-28T03:51:34;2.40;;;1.60;;
78840;SDS011;68191;47.190;27.558;2023-02-28T03:54:07;2.50;;;1.60;;
78840;SDS011;68191;47.190;27.558;2023-02-28T03:56:45;2.80;;;1.80;;
78840;SDS011;68191;47.190;27.558;2023-02-28T03:59:21;2.00;;;1.70;;
78840;SDS011;68191;47.190;27.558;2023-02-28T04:01:56;2.70;;;1.90;;
78840;SDS011;68191;47.190;27.558;2023-02-28T04:04:27;2.30;;;1.80;;
78840;SDS011;68191;47.190;27.558;2023-02-28T04:07:03;2.30;;;1.80;;
78840;SDS011;68191;47.190;27.558;2023-02-28T04:09:35;2.10;;;1.70;;
78840;SDS011;68191;47.190;27.558;2023-02-28T04:12:06;2.80;;;2.00;;
78840;SDS011;68191;47.190;27.558;2023-02-28T04:14:37;2.10;;;1.60;;
78840;SDS011;68191;47.190;27.558;2023-02-28T04:17:07;2.30;;;1.70;;
78840;SDS011;68191;47.190;27.558;2023-02-28T04:19:38;2.30;;;1.80;;
78840;SDS011;68191;47.190;27.558;2023-02-28T04:22:09;2.60;;;2.30;;
78840;SDS011;68191;47.190;27.558;2023-02-28T04:24:40;2.60;;;1.80;;
78840;SDS011;68191;47.190;27.558;2023-02-28T04:27:10;2.10;;;1.70;;
78840;SDS011;68191;47.190;27.558;2023-02-28T04:29:42;2.30;;;1.90;;
78840;SDS011;68191;47.190;27.558;2023-02-28T04:32:13;2.10;;;1.80;;
78840;SDS011;68191;47.190;27.558;2023-02-28T04:34:43;2.30;;;1.70;;
78840;SDS011;68191;47.190;27.558;2023-02-28T04:37:13;4.00;;;1.80;;
78840;SDS011;68191;47.190;27.558;2023-02-28T04:39:43;2.10;;;1.70;;
78840;SDS011;68191;47.190;27.558;2023-02-28T04:42:14;2.40;;;1.90;;
78840;SDS011;68191;47.190;27.558;2023-02-28T04:44:45;2.70;;;2.00;;
78840;SDS011;68191;47.190;27.558;2023-02-28T04:47:16;2.80;;;2.30;;
78840;SDS011;68191;47.190;27.558;2023-02-28T04:49:47;2.10;;;1.70;;
78840;SDS011;68191;47.190;27.558;2023-02-28T04:52:18;2.60;;;2.20;;
78840;SDS011;68191;47.190;27.558;2023-02-28T04:54:48;2.50;;;1.80;;
78840;SDS011;68191;47.190;27.558;2023-02-28T04:57:19;3.20;;;2.10;;
78840;SDS011;68191;47.190;27.558;2023-02-28T04:59:49;2.30;;;1.90;;
78840;SDS011;68191;47.190;27.558;2023-02-28T05:02:20;3.20;;;1.90;;
78840;SDS011;68191;47.190;27.558;2023-02-28T05:04:50;2.60;;;2.00;;
78840;SDS011;68191;47.190;27.558;2023-02-28T05:07:21;2.50;;;1.90;;
78840;SDS011;68191;47.190;27.558;2023-02-28T05:09:52;2.80;;;1.80;;
78840;SDS011;68191;47.190;27.558;2023-02-28T05:12:22;2.40;;;1.80;;
78840;SDS011;68191;47.190;27.558;2023-02-28T05:14:52;2.30;;;1.70;;
78840;SDS011;68191;47.190;27.558;2023-02-28T05:17:23;3.50;;;2.00;;
78840;SDS011;68191;47.190;27.558;2023-02-28T05:19:53;2.80;;;2.10;;
78840;SDS011;68191;47.190;27.558;2023-02-28T05:22:24;2.30;;;1.80;;
78840;SDS011;68191;47.190;27.558;2023-02-28T05:24:54;2.80;;;1.70;;
78840;SDS011;68191;47.190;27.558;2023-02-28T05:27:24;2.00;;;1.40;;
78840;SDS011;68191;47.190;27.558;2023-02-28T05:29:55;2.50;;;2.10;;
78840;SDS011;68191;47.190;27.558;2023-02-28T05:32:26;2.30;;;1.80;;
78840;SDS011;68191;47.190;27.558;2023-02-28T05:34:56;1.70;;;1.50;;
78840;SDS011;68191;47.190;27.558;2023-02-28T05:37:26;2.80;;;1.90;;
78840;SDS011;68191;47.190;27.558;2023-02-28T05:39:57;1.90;;;1.50;;
78840;SDS011;68191;47.190;27.558;2023-02-28T05:42:27;2.80;;;1.90;;
78840;SDS011;68191;47.190;27.558;2023-02-28T05:44:57;2.80;;;1.80;;
78840;SDS011;68191;47.190;27.558;2023-02-28T05:47:28;3.20;;;2.10;;
78840;SDS011;68191;47.190;27.558;2023-02-28T05:49:58;2.40;;;2.00;;
78840;SDS011;68191;47.190;27.558;2023-02-28T05:52:28;3.10;;;1.90;;
78840;SDS011;68191;47.190;27.558;2023-02-28T05:54:59;2.70;;;2.00;;
78840;SDS011;68191;47.190;27.558;2023-02-28T05:57:29;3.80;;;2.10;;
78840;SDS011;68191;47.190;27.558;2023-02-28T06:00:00;2.10;;;1.70;;
78840;SDS011;68191;47.190;27.558;2023-02-28T06:02:30;2.40;;;1.80;;
78840;SDS011;68191;47.190;27.558;2023-02-28T06:05:01;3.00;;;2.00;;
78840;SDS011;68191;47.190;27.558;2023-02-28T06:07:32;2.40;;;1.90;;
78840;SDS011;68191;47.190;27.558;2023-02-28T06:10:02;3.00;;;2.30;;
78840;SDS011;68191;47.190;27.558;2023-02-28T06:12:33;2.80;;;2.20;;
78840;SDS011;68191;47.190;27.558;2023-02-28T06:15:05;2.20;;;1.70;;
78840;SDS011;68191;47.190;27.558;2023-02-28T06:17:39;2.60;;;2.10;;
78840;SDS011;68191;47.190;27.558;2023-02-28T06:20:11;3.00;;;1.90;;
78840;SDS011;68191;47.190;27.558;2023-02-28T06:22:42;2.90;;;2.10;;
78840;SDS011;68191;47.190;27.558;2023-02-28T06:25:12;2.70;;;2.10;;
78840;SDS011;68191;47.190;27.558;2023-02-28T06:27:42;3.20;;;2.20;;
78840;SDS011;68191;47.190;27.558;2023-02-28T06:30:14;3.20;;;2.50;;
78840;SDS011;68191;47.190;27.558;2023-02-28T06:32:44;3.40;;;2.60;;
78840;SDS011;68191;47.190;27.558;2023-02-28T06:35:16;6.30;;;5.70;;
78840;SDS011;68191;47.190;27.558;2023-02-28T06:37:47;11.80;;;11.00;;
78840;SDS011;68191;47.190;27.558;2023-02-28T06:40:17;9.70;;;8.90;;
78840;SDS011;68191;47.190;27.558;2023-02-28T06:42:48;8.80;;;8.00;;
78840;SDS011;68191;47.190;27.558;2023-02-28T06:45:19;5.30;;;4.60;;
78840;SDS011;68191;47.190;27.558;2023-02-28T06:47:49;5.00;;;3.90;;
78840;SDS011;68191;47.190;27.558;2023-02-28T06:50:19;5.00;;;3.90;;
78840;SDS011;68191;47.190;27.558;2023-02-28T06:52:50;4.20;;;3.80;;
78840;SDS011;68191;47.190;27.558;2023-02-28T06:55:22;4.40;;;3.90;;
78840;SDS011;68191;47.190;27.558;2023-02-28T06:57:52;4.60;;;3.80;;
78840;SDS011;68191;47.190;27.558;2023-02-28T07:00:24;3.60;;;3.30;;
78840;SDS011;68191;47.190;27.558;2023-02-28T07:02:54;4.10;;;3.40;;
78840;SDS011;68191;47.190;27.558;2023-02-28T07:05:26;5.00;;;3.00;;
78840;SDS011;68191;47.190;27.558;2023-02-28T07:07:57;3.20;;;2.60;;
78840;SDS011;68191;47.190;27.558;2023-02-28T07:10:27;4.20;;;2.80;;
78840;SDS011;68191;47.190;27.558;2023-02-28T07:12:58;3.70;;;2.90;;
78840;SDS011;68191;47.190;27.558;2023-02-28T07:15:29;3.50;;;2.70;;
78840;SDS011;68191;47.190;27.558;2023-02-28T07:17:59;5.20;;;3.40;;
78840;SDS011;68191;47.190;27.558;2023-02-28T07:20:30;7.90;;;3.90;;
78840;SDS011;68191;47.190;27.558;2023-02-28T07:23:00;4.60;;;3.70;;
78840;SDS011;68191;47.190;27.558;2023-02-28T07:25:31;4.90;;;3.80;;
78840;SDS011;68191;47.190;27.558;2023-02-28T07:28:01;4.80;;;3.50;;
78840;SDS011;68191;47.190;27.558;2023-02-28T07:30:32;5.90;;;3.50;;
78840;SDS011;68191;47.190;27.558;2023-02-28T07:33:02;5.70;;;3.40;;
78840;SDS011;68191;47.190;27.558;2023-02-28T07:35:33;4.00;;;3.20;;
78840;SDS011;68191;47.190;27.558;2023-02-28T07:38:03;4.50;;;3.40;;
78840;SDS011;68191;47.190;27.558;2023-02-28T07:40:35;5.30;;;3.20;;
78840;SDS011;68191;47.190;27.558;2023-02-28T07:43:06;4.80;;;3.30;;
78840;SDS011;68191;47.190;27.558;2023-02-28T07:45:37;3.50;;;3.10;;
78840;SDS011;68191;47.190;27.558;2023-02-28T07:48:07;4.10;;;3.10;;
78840;SDS011;68191;47.190;27.558;2023-02-28T07:50:38;4.10;;;3.20;;
78840;SDS011;68191;47.190;27.558;2023-02-28T07:53:08;4.20;;;3.10;;
78840;SDS011;68191;47.190;27.558;2023-02-28T07:55:39;4.10;;;3.10;;
78840;SDS011;68191;47.190;27.558;2023-02-28T07:58:09;4.00;;;2.90;;
78840;SDS011;68191;47.190;27.558;2023-02-28T08:00:39;4.40;;;2.90;;
78840;SDS011;68191;47.190;27.558;2023-02-28T08:03:10;4.60;;;3.10;;
78840;SDS011;68191;47.190;27.558;2023-02-28T08:05:41;4.30;;;3.20;;
78840;SDS011;68191;47.190;27.558;2023-02-28T08:08:11;3.60;;;2.90;;
78840;SDS011;68191;47.190;27.558;2023-02-28T08:10:42;4.10;;;2.70;;
78840;SDS011;68191;47.190;27.558;2023-02-28T08:13:13;3.60;;;2.90;;
78840;SDS011;68191;47.190;27.558;2023-02-28T08:15:43;3.50;;;2.70;;
78840;SDS011;68191;47.190;27.558;2023-02-28T08:18:14;3.40;;;2.90;;
78840;SDS011;68191;47.190;27.558;2023-02-28T08:20:45;3.60;;;3.10;;
78840;SDS011;68191;47.190;27.558;2023-02-28T08:23:15;5.40;;;2.60;;
78840;SDS011;68191;47.190;27.558;2023-02-28T08:25:52;4.60;;;2.90;;
78840;SDS011;68191;47.190;27.558;2023-02-28T08:28:23;6.90;;;2.90;;
78840;SDS011;68191;47.190;27.558;2023-02-28T08:30:54;4.50;;;2.80;;
78840;SDS011;68191;47.190;27.558;2023-02-28T08:33:25;4.60;;;2.80;;
78840;SDS011;68191;47.190;27.558;2023-02-28T08:35:58;3.40;;;2.70;;
78840;SDS011;68191;47.190;27.558;2023-02-28T08:38:28;4.10;;;3.00;;
78840;SDS011;68191;47.190;27.558;2023-02-28T08:41:00;3.30;;;2.70;;
78840;SDS011;68191;47.190;27.558;2023-02-28T08:43:34;3.50;;;2.60;;
78840;SDS011;68191;47.190;27.558;2023-02-28T08:46:05;3.50;;;2.90;;
78840;SDS011;68191;47.190;27.558;2023-02-28T08:48:36;3.70;;;2.50;;
78840;SDS011;68191;47.190;27.558;2023-02-28T08:51:08;4.40;;;2.60;;
78840;SDS011;68191;47.190;27.558;2023-02-28T08:53:40;2.90;;;2.30;;
78840;SDS011;68191;47.190;27.558;2023-02-28T08:56:12;3.70;;;2.60;;
78840;SDS011;68191;47.190;27.558;2023-02-28T09:01:14;4.10;;;2.60;;
78840;SDS011;68191;47.190;27.558;2023-02-28T09:03:46;3.30;;;2.70;;
78840;SDS011;68191;47.190;27.558;2023-02-28T09:06:18;3.60;;;2.60;;
78840;SDS011;68191;47.190;27.558;2023-02-28T09:08:51;3.30;;;2.60;;
78840;SDS011;68191;47.190;27.558;2023-02-28T09:11:25;3.20;;;2.60;;
78840;SDS011;68191;47.190;27.558;2023-02-28T09:13:57;3.90;;;3.00;;
78840;SDS011;68191;47.190;27.558;2023-02-28T09:16:27;3.30;;;2.50;;
78840;SDS011;68191;47.190;27.558;2023-02-28T09:18:58;4.20;;;3.00;;
78840;SDS011;68191;47.190;27.558;2023-02-28T09:21:30;3.40;;;2.90;;
78840;SDS011;68191;47.190;27.558;2023-02-28T09:24:00;3.70;;;3.10;;
78840;SDS011;68191;47.190;27.558;2023-02-28T09:26:31;4.00;;;2.70;;
78840;SDS011;68191;47.190;27.558;2023-02-28T09:29:02;2.80;;;2.50;;
78840;SDS011;68191;47.190;27.558;2023-02-28T09:31:33;3.30;;;2.80;;
78840;SDS011;68191;47.190;27.558;2023-02-28T09:34:03;3.10;;;2.70;;
78840;SDS011;68191;47.190;27.558;2023-02-28T09:36:34;4.30;;;3.10;;
78840;SDS011;68191;47.190;27.558;2023-02-28T09:39:05;4.50;;;3.20;;
78840;SDS011;68191;47.190;27.558;2023-02-28T09:41:38;4.80;;;2.80;;
78840;SDS011;68191;47.190;27.558;2023-02-28T09:44:18;5.00;;;3.10;;
78840;SDS011;68191;47.190;27.558;2023-02-28T09:46:54;3.20;;;2.60;;
78840;SDS011;68191;47.190;27.558;2023-02-28T09:49:31;5.20;;;2.90;;
78840;SDS011;68191;47.190;27.558;2023-02-28T09:52:08;3.30;;;2.90;;
78840;SDS011;68191;47.190;27.558;2023-02-28T09:54:44;3.20;;;2.70;;
78840;SDS011;68191;47.190;27.558;2023-02-28T09:57:16;5.10;;;3.20;;
78840;SDS011;68191;47.190;27.558;2023-02-28T10:00:00;3.70;;;2.60;;
78840;SDS011;68191;47.190;27.558;2023-02-28T10:02:45;4.10;;;3.00;;
78840;SDS011;68191;47.190;27.558;2023-02-28T10:05:22;3.40;;;2.80;;
78840;SDS011;68191;47.190;27.558;2023-02-28T10:08:00;4.00;;;3.00;;
78840;SDS011;68191;47.190;27.558;2023-02-28T10:10:37;4.20;;;2.90;;
78840;SDS011;68191;47.190;27.558;2023-02-28T10:13:14;4.10;;;2.90;;
78840;SDS011;68191;47.190;27.558;2023-02-28T10:15:52;3.50;;;2.70;;
78840;SDS011;68191;47.190;27.558;2023-02-28T10:18:28;3.70;;;3.00;;
78840;SDS011;68191;47.190;27.558;2023-02-28T10:21:08;4.00;;;2.90;;
78840;SDS011;68191;47.190;27.558;2023-02-28T10:23:48;3.60;;;2.70;;
78840;SDS011;68191;47.190;27.558;2023-02-28T10:26:21;4.40;;;2.70;;
78840;SDS011;68191;47.190;27.558;2023-02-28T10:28:54;5.00;;;2.90;;
78840;SDS011;68191;47.190;27.558;2023-02-28T10:31:25;7.20;;;3.50;;
78840;SDS011;68191;47.190;27.558;2023-02-28T10:33:56;6.30;;;2.90;;
78840;SDS011;68191;47.190;27.558;2023-02-28T10:36:26;3.90;;;2.80;;
78840;SDS011;68191;47.190;27.558;2023-02-28T10:38:57;4.90;;;3.10;;
78840;SDS011;68191;47.190;27.558;2023-02-28T10:41:29;4.10;;;2.90;;
78840;SDS011;68191;47.190;27.558;2023-02-28T10:44:17;5.80;;;2.70;;
78840;SDS011;68191;47.190;27.558;2023-02-28T10:46:51;3.60;;;2.80;;
78840;SDS011;68191;47.190;27.558;2023-02-28T10:49:23;4.00;;;2.90;;
78840;SDS011;68191;47.190;27.558;2023-02-28T10:51:56;5.90;;;2.70;;
78840;SDS011;68191;47.190;27.558;2023-02-28T10:54:29;3.40;;;2.60;;
78840;SDS011;68191;47.190;27.558;2023-02-28T10:57:17;4.50;;;2.70;;
78840;SDS011;68191;47.190;27.558;2023-02-28T10:59:52;3.50;;;2.70;;
78840;SDS011;68191;47.190;27.558;2023-02-28T11:02:42;3.50;;;2.50;;
78840;SDS011;68191;47.190;27.558;2023-02-28T11:05:28;4.60;;;2.70;;
78840;SDS011;68191;47.190;27.558;2023-02-28T11:08:02;5.60;;;3.00;;
78840;SDS011;68191;47.190;27.558;2023-02-28T11:10:43;5.00;;;2.80;;
78840;SDS011;68191;47.190;27.558;2023-02-28T11:13:19;2.90;;;2.50;;
78840;SDS011;68191;47.190;27.558;2023-02-28T11:15:55;4.30;;;2.60;;
78840;SDS011;68191;47.190;27.558;2023-02-28T11:18:29;3.70;;;2.40;;
78840;SDS011;68191;47.190;27.558;2023-02-28T11:21:05;2.80;;;2.20;;
78840;SDS011;68191;47.190;27.558;2023-02-28T11:23:37;4.00;;;2.30;;
78840;SDS011;68191;47.190;27.558;2023-02-28T11:26:12;3.70;;;1.80;;
78840;SDS011;68191;47.190;27.558;2023-02-28T11:28:43;4.80;;;2.40;;
78840;SDS011;68191;47.190;27.558;2023-02-28T11:31:17;3.90;;;2.60;;
78840;SDS011;68191;47.190;27.558;2023-02-28T11:33:49;4.60;;;3.10;;
78840;SDS011;68191;47.190;27.558;2023-02-28T11:36:23;4.40;;;2.60;;
78840;SDS011;68191;47.190;27.558;2023-02-28T11:38:58;2.90;;;2.50;;
78840;SDS011;68191;47.190;27.558;2023-02-28T11:41:46;4.60;;;3.00;;
78840;SDS011;68191;47.190;27.558;2023-02-28T11:44:39;4.60;;;3.30;;
78840;SDS011;68191;47.190;27.558;2023-02-28T11:47:29;4.40;;;3.50;;
78840;SDS011;68191;47.190;27.558;2023-02-28T11:53:01;5.80;;;3.80;;
78840;SDS011;68191;47.190;27.558;2023-02-28T11:55:46;5.40;;;3.30;;
78840;SDS011;68191;47.190;27.558;2023-02-28T11:58:36;4.60;;;3.20;;
78840;SDS011;68191;47.190;27.558;2023-02-28T12:01:21;3.90;;;2.90;;
78840;SDS011;68191;47.190;27.558;2023-02-28T12:04:10;4.20;;;3.30;;
78840;SDS011;68191;47.190;27.558;2023-02-28T12:06:48;4.20;;;3.10;;
78840;SDS011;68191;47.190;27.558;2023-02-28T12:09:35;4.30;;;3.30;;
78840;SDS011;68191;47.190;27.558;2023-02-28T12:12:27;4.90;;;3.10;;
78840;SDS011;68191;47.190;27.558;2023-02-28T12:15:16;2.80;;;2.30;;
78840;SDS011;68191;47.190;27.558;2023-02-28T12:18:07;4.50;;;2.30;;
78840;SDS011;68191;47.190;27.558;2023-02-28T12:20:53;3.50;;;2.10;;
78840;SDS011;68191;47.190;27.558;2023-02-28T12:23:41;3.30;;;2.00;;
78840;SDS011;68191;47.190;27.558;2023-02-28T12:26:34;3.20;;;1.90;;
78840;SDS011;68191;47.190;27.558;2023-02-28T12:29:12;3.30;;;1.70;;
78840;SDS011;68191;47.190;27.558;2023-02-28T12:31:47;3.00;;;1.70;;
78840;SDS011;68191;47.190;27.558;2023-02-28T12:34:22;2.90;;;1.80;;
78840;SDS011;68191;47.190;27.558;2023-02-28T12:37:01;9.80;;;2.40;;
78840;SDS011;68191;47.190;27.558;2023-02-28T12:39:37;3.90;;;1.60;;
78840;SDS011;68191;47.190;27.558;2023-02-28T12:42:16;2.60;;;1.60;;
78840;SDS011;68191;47.190;27.558;2023-02-28T12:44:54;3.00;;;1.70;;
78840;SDS011;68191;47.190;27.558;2023-02-28T12:47:29;3.30;;;1.70;;
78840;SDS011;68191;47.190;27.558;2023-02-28T12:50:02;2.50;;;1.90;;
78840;SDS011;68191;47.190;27.558;2023-02-28T12:52:37;2.80;;;1.80;;
78840;SDS011;68191;47.190;27.558;2023-02-28T12:55:17;2.50;;;1.50;;
78840;SDS011;68191;47.190;27.558;2023-02-28T12:57:57;3.00;;;1.90;;
78840;SDS011;68191;47.190;27.558;2023-02-28T13:00:37;3.70;;;1.60;;
78840;SDS011;68191;47.190;27.558;2023-02-28T13:03:27;2.70;;;1.60;;
78840;SDS011;68191;47.190;27.558;2023-02-28T13:09:06;2.20;;;1.30;;
78840;SDS011;68191;47.190;27.558;2023-02-28T13:11:41;2.20;;;1.40;;
78840;SDS011;68191;47.190;27.558;2023-02-28T13:14:26;4.00;;;1.90;;
78840;SDS011;68191;47.190;27.558;2023-02-28T13:17:00;3.30;;;1.60;;
78840;SDS011;68191;47.190;27.558;2023-02-28T13:19:40;2.50;;;1.40;;
78840;SDS011;68191;47.190;27.558;2023-02-28T13:22:18;2.20;;;1.70;;
78840;SDS011;68191;47.190;27.558;2023-02-28T13:25:13;2.50;;;1.70;;
78840;SDS011;68191;47.190;27.558;2023-02-28T13:31:33;1.60;;;1.10;;
78840;SDS011;68191;47.190;27.558;2023-02-28T13:34:41;2.30;;;1.40;;
78840;SDS011;68191;47.190;27.558;2023-02-28T13:37:44;3.10;;;1.80;;
78840;SDS011;68191;47.190;27.558;2023-02-28T13:40:30;2.80;;;1.40;;
78840;SDS011;68191;47.190;27.558;2023-02-28T13:43:05;3.00;;;1.50;;
78840;SDS011;68191;47.190;27.558;2023-02-28T13:45:37;2.40;;;1.50;;
78840;SDS011;68191;47.190;27.558;2023-02-28T13:48:28;2.70;;;1.70;;
78840;SDS011;68191;47.190;27.558;2023-02-28T13:50:59;2.00;;;1.30;;
78840;SDS011;68191;47.190;27.558;2023-02-28T13:53:54;2.30;;;1.40;;
78840;SDS011;68191;47.190;27.558;2023-02-28T13:56:36;2.50;;;1.20;;
78840;SDS011;68191;47.190;27.558;2023-02-28T13:59:22;1.80;;;1.10;;
78840;SDS011;68191;47.190;27.558;2023-02-28T14:02:06;2.10;;;1.30;;
78840;SDS011;68191;47.190;27.558;2023-02-28T14:05:06;2.20;;;1.40;;
78840;SDS011;68191;47.190;27.558;2023-02-28T14:07:46;2.40;;;1.40;;
78840;SDS011;68191;47.190;27.558;2023-02-28T14:10:23;2.40;;;1.40;;
78840;SDS011;68191;47.190;27.558;2023-02-28T14:15:46;2.20;;;1.30;;
78840;SDS011;68191;47.190;27.558;2023-02-28T14:18:24;1.90;;;1.30;;
78840;SDS011;68191;47.190;27.558;2023-02-28T14:21:01;1.90;;;1.30;;
78840;SDS011;68191;47.190;27.558;2023-02-28T14:23:55;2.80;;;1.40;;
78840;SDS011;68191;47.190;27.558;2023-02-28T14:26:56;3.70;;;1.20;;
78840;SDS011;68191;47.190;27.558;2023-02-28T14:32:37;1.90;;;1.40;;
78840;SDS011;68191;47.190;27.558;2023-02-28T14:35:20;2.00;;;1.40;;
78840;SDS011;68191;47.190;27.558;2023-02-28T14:38:16;4.30;;;1.30;;
78840;SDS011;68191;47.190;27.558;2023-02-28T14:40:51;2.10;;;1.40;;
78840;SDS011;68191;47.190;27.558;2023-02-28T14:43:24;2.20;;;1.50;;
78840;SDS011;68191;47.190;27.558;2023-02-28T14:45:56;1.60;;;0.80;;
78840;SDS011;68191;47.190;27.558;2023-02-28T14:48:29;1.80;;;1.10;;
78840;SDS011;68191;47.190;27.558;2023-02-28T14:51:00;2.10;;;1.20;;
78840;SDS011;68191;47.190;27.558;2023-02-28T14:53:35;1.70;;;1.40;;
78840;SDS011;68191;47.190;27.558;2023-02-28T14:56:17;1.90;;;1.10;;
78840;SDS011;68191;47.190;27.558;2023-02-28T14:58:54;1.80;;;1.10;;
78840;SDS011;68191;47.190;27.558;2023-02-28T15:01:25;1.90;;;1.50;;
78840;SDS011;68191;47.190;27.558;2023-02-28T15:04:00;2.40;;;1.30;;
78840;SDS011;68191;47.190;27.558;2023-02-28T15:06:32;1.90;;;1.30;;
78840;SDS011;68191;47.190;27.558;2023-02-28T15:09:13;1.70;;;1.10;;
78840;SDS011;68191;47.190;27.558;2023-02-28T15:11:47;2.40;;;1.30;;
78840;SDS011;68191;47.190;27.558;2023-02-28T15:14:18;4.80;;;1.90;;
78840;SDS011;68191;47.190;27.558;2023-02-28T15:16:51;2.00;;;1.40;;
78840;SDS011;68191;47.190;27.558;2023-02-28T15:19:27;1.70;;;1.10;;
78840;SDS011;68191;47.190;27.558;2023-02-28T15:22:00;2.20;;;1.40;;
78840;SDS011;68191;47.190;27.558;2023-02-28T15:24:37;2.30;;;1.20;;
78840;SDS011;68191;47.190;27.558;2023-02-28T15:27:11;2.10;;;1.40;;
78840;SDS011;68191;47.190;27.558;2023-02-28T15:29:45;2.10;;;1.40;;
78840;SDS011;68191;47.190;27.558;2023-02-28T15:32:28;2.40;;;1.10;;
78840;SDS011;68191;47.190;27.558;2023-02-28T15:37:56;2.10;;;1.40;;
78840;SDS011;68191;47.190;27.558;2023-02-28T15:40:29;1.50;;;1.00;;
78840;SDS011;68191;47.190;27.558;2023-02-28T15:43:05;1.40;;;0.70;;
78840;SDS011;68191;47.190;27.558;2023-02-28T15:45:44;1.90;;;1.20;;